sensor_id;sensor_type;location;lat;lon;timestamp;P1;durP1;ratioP1;P2;durP2;ratioP2
54937;SDS011;52756;52.826;6.214;2022-07-21T00:00:44;11.10;;;7.60;;
54937;SDS011;52756;52.826;6.214;2022-07-21T00:03:10;8.02;;;7.00;;
54937;SDS011;52756;52.826;6.214;2022-07-21T00:05:35;12.15;;;8.27;;
54937;SDS011;52756;52.826;6.214;2022-07-21T00:08:01;8.45;;;6.65;;
54937;SDS011;52756;52.826;6.214;2022-07-21T00:10:27;7.43;;;5.55;;
54937;SDS011;52756;52.826;6.214;2022-07-21T00:12:53;8.52;;;6.25;;
54937;SDS011;52756;52.826;6.214;2022-07-21T00:15:20;9.23;;;7.68;;
54937;SDS011;52756;52.826;6.214;2022-07-21T00:17:47;12.40;;;8.15;;
54937;SDS011;52756;52.826;6.214;2022-07-21T00:20:14;12.57;;;8.48;;
54937;SDS011;52756;52.826;6.214;2022-07-21T00:22:41;12.45;;;9.50;;
54937;SDS011;52756;52.826;6.214;2022-07-21T00:25:08;12.20;;;9.45;;
54937;SDS011;52756;52.826;6.214;2022-07-21T00:27:35;10.82;;;9.15;;
54937;SDS011;52756;52.826;6.214;2022-07-21T00:30:01;11.88;;;9.07;;
54937;SDS011;52756;52.826;6.214;2022-07-21T00:32:28;13.38;;;9.40;;
54937;SDS011;52756;52.826;6.214;2022-07-21T00:34:54;12.90;;;9.07;;
54937;SDS011;52756;52.826;6.214;2022-07-21T00:37:20;15.25;;;10.88;;
54937;SDS011;52756;52.826;6.214;2022-07-21T00:39:49;16.42;;;11.20;;
54937;SDS011;52756;52.826;6.214;2022-07-21T00:42:25;17.15;;;10.82;;
54937;SDS011;52756;52.826;6.214;2022-07-21T00:44:52;13.70;;;10.45;;
54937;SDS011;52756;52.826;6.214;2022-07-21T00:47:19;12.77;;;11.25;;
54937;SDS011;52756;52.826;6.214;2022-07-21T00:49:46;15.25;;;11.38;;
54937;SDS011;52756;52.826;6.214;2022-07-21T00:52:12;14.85;;;12.90;;
54937;SDS011;52756;52.826;6.214;2022-07-21T00:54:38;16.10;;;12.02;;
54937;SDS011;52756;52.826;6.214;2022-07-21T00:57:04;14.20;;;11.50;;
54937;SDS011;52756;52.826;6.214;2022-07-21T00:59:30;18.08;;;12.57;;
54937;SDS011;52756;52.826;6.214;2022-07-21T01:01:56;16.52;;;12.05;;
54937;SDS011;52756;52.826;6.214;2022-07-21T01:04:22;16.20;;;13.35;;
54937;SDS011;52756;52.826;6.214;2022-07-21T01:06:48;14.50;;;12.13;;
54937;SDS011;52756;52.826;6.214;2022-07-21T01:09:14;15.95;;;12.77;;
54937;SDS011;52756;52.826;6.214;2022-07-21T01:11:40;16.52;;;13.93;;
54937;SDS011;52756;52.826;6.214;2022-07-21T01:14:08;18.75;;;14.55;;
54937;SDS011;52756;52.826;6.214;2022-07-21T01:16:33;14.68;;;13.07;;
54937;SDS011;52756;52.826;6.214;2022-07-21T01:18:59;16.58;;;14.20;;
54937;SDS011;52756;52.826;6.214;2022-07-21T01:23:53;14.02;;;11.50;;
54937;SDS011;52756;52.826;6.214;2022-07-21T01:26:19;12.68;;;10.68;;
54937;SDS011;52756;52.826;6.214;2022-07-21T01:28:45;10.60;;;8.00;;
54937;SDS011;52756;52.826;6.214;2022-07-21T01:31:11;12.75;;;11.23;;
54937;SDS011;52756;52.826;6.214;2022-07-21T01:33:36;15.77;;;13.50;;
54937;SDS011;52756;52.826;6.214;2022-07-21T01:36:02;15.80;;;14.20;;
54937;SDS011;52756;52.826;6.214;2022-07-21T01:38:28;16.10;;;13.55;;
54937;SDS011;52756;52.826;6.214;2022-07-21T01:41:12;18.63;;;16.27;;
54937;SDS011;52756;52.826;6.214;2022-07-21T01:44:05;17.67;;;15.50;;
54937;SDS011;52756;52.826;6.214;2022-07-21T01:46:33;19.17;;;16.17;;
54937;SDS011;52756;52.826;6.214;2022-07-21T01:49:01;18.45;;;16.55;;
54937;SDS011;52756;52.826;6.214;2022-07-21T01:51:27;17.67;;;15.95;;
54937;SDS011;52756;52.826;6.214;2022-07-21T01:53:53;14.13;;;12.52;;
54937;SDS011;52756;52.826;6.214;2022-07-21T01:56:20;17.70;;;15.82;;
54937;SDS011;52756;52.826;6.214;2022-07-21T01:58:47;20.40;;;17.20;;
54937;SDS011;52756;52.826;6.214;2022-07-21T02:01:14;12.30;;;11.07;;
54937;SDS011;52756;52.826;6.214;2022-07-21T02:03:41;19.58;;;17.65;;
54937;SDS011;52756;52.826;6.214;2022-07-21T02:06:08;17.38;;;15.65;;
54937;SDS011;52756;52.826;6.214;2022-07-21T02:08:34;16.48;;;14.88;;
54937;SDS011;52756;52.826;6.214;2022-07-21T02:11:00;12.82;;;11.52;;
54937;SDS011;52756;52.826;6.214;2022-07-21T02:13:27;19.70;;;17.60;;
54937;SDS011;52756;52.826;6.214;2022-07-21T02:15:52;21.05;;;19.05;;
54937;SDS011;52756;52.826;6.214;2022-07-21T02:18:19;21.98;;;19.77;;
54937;SDS011;52756;52.826;6.214;2022-07-21T02:20:45;12.88;;;11.40;;
54937;SDS011;52756;52.826;6.214;2022-07-21T02:23:13;17.58;;;15.93;;
54937;SDS011;52756;52.826;6.214;2022-07-21T02:25:40;14.57;;;13.05;;
54937;SDS011;52756;52.826;6.214;2022-07-21T02:28:06;13.48;;;11.27;;
54937;SDS011;52756;52.826;6.214;2022-07-21T02:30:32;11.88;;;10.77;;
54937;SDS011;52756;52.826;6.214;2022-07-21T02:32:57;13.48;;;12.07;;
54937;SDS011;52756;52.826;6.214;2022-07-21T02:35:23;9.10;;;8.20;;
54937;SDS011;52756;52.826;6.214;2022-07-21T02:37:48;10.25;;;9.02;;
54937;SDS011;52756;52.826;6.214;2022-07-21T02:40:14;11.88;;;10.70;;
54937;SDS011;52756;52.826;6.214;2022-07-21T02:42:40;11.20;;;10.10;;
54937;SDS011;52756;52.826;6.214;2022-07-21T02:45:06;11.25;;;9.93;;
54937;SDS011;52756;52.826;6.214;2022-07-21T02:47:46;17.38;;;15.55;;
54937;SDS011;52756;52.826;6.214;2022-07-21T02:50:13;14.70;;;12.55;;
54937;SDS011;52756;52.826;6.214;2022-07-21T02:52:39;13.63;;;12.13;;
54937;SDS011;52756;52.826;6.214;2022-07-21T02:55:05;13.27;;;11.88;;
54937;SDS011;52756;52.826;6.214;2022-07-21T02:57:31;11.10;;;9.85;;
54937;SDS011;52756;52.826;6.214;2022-07-21T02:59:57;13.00;;;10.98;;
54937;SDS011;52756;52.826;6.214;2022-07-21T03:02:23;12.10;;;10.90;;
54937;SDS011;52756;52.826;6.214;2022-07-21T03:04:48;12.02;;;10.65;;
54937;SDS011;52756;52.826;6.214;2022-07-21T03:07:14;15.02;;;13.52;;
54937;SDS011;52756;52.826;6.214;2022-07-21T03:09:39;11.23;;;10.10;;
54937;SDS011;52756;52.826;6.214;2022-07-21T03:12:05;12.40;;;11.20;;
54937;SDS011;52756;52.826;6.214;2022-07-21T03:14:32;12.20;;;10.95;;
54937;SDS011;52756;52.826;6.214;2022-07-21T03:16:58;12.40;;;11.13;;
54937;SDS011;52756;52.826;6.214;2022-07-21T03:19:25;14.43;;;13.10;;
54937;SDS011;52756;52.826;6.214;2022-07-21T03:21:51;14.27;;;12.98;;
54937;SDS011;52756;52.826;6.214;2022-07-21T03:24:17;19.55;;;17.70;;
54937;SDS011;52756;52.826;6.214;2022-07-21T03:26:42;19.35;;;17.50;;
54937;SDS011;52756;52.826;6.214;2022-07-21T03:29:08;18.38;;;16.58;;
54937;SDS011;52756;52.826;6.214;2022-07-21T03:31:34;21.60;;;19.50;;
54937;SDS011;52756;52.826;6.214;2022-07-21T03:34:00;18.00;;;16.30;;
54937;SDS011;52756;52.826;6.214;2022-07-21T03:36:26;20.08;;;18.08;;
54937;SDS011;52756;52.826;6.214;2022-07-21T03:38:52;15.45;;;13.95;;
54937;SDS011;52756;52.826;6.214;2022-07-21T03:41:17;15.68;;;14.15;;
54937;SDS011;52756;52.826;6.214;2022-07-21T03:43:43;22.88;;;20.70;;
54937;SDS011;52756;52.826;6.214;2022-07-21T03:46:09;20.00;;;18.15;;
54937;SDS011;52756;52.826;6.214;2022-07-21T03:48:34;18.85;;;17.05;;
54937;SDS011;52756;52.826;6.214;2022-07-21T03:51:00;25.17;;;22.92;;
54937;SDS011;52756;52.826;6.214;2022-07-21T03:53:26;28.38;;;25.75;;
54937;SDS011;52756;52.826;6.214;2022-07-21T03:55:51;20.33;;;18.23;;
54937;SDS011;52756;52.826;6.214;2022-07-21T03:58:17;24.85;;;22.50;;
54937;SDS011;52756;52.826;6.214;2022-07-21T04:00:43;24.17;;;21.85;;
54937;SDS011;52756;52.826;6.214;2022-07-21T04:03:10;27.90;;;25.35;;
54937;SDS011;52756;52.826;6.214;2022-07-21T04:05:37;18.10;;;16.25;;
54937;SDS011;52756;52.826;6.214;2022-07-21T04:08:04;19.20;;;17.35;;
54937;SDS011;52756;52.826;6.214;2022-07-21T04:10:31;21.17;;;19.05;;
54937;SDS011;52756;52.826;6.214;2022-07-21T04:12:59;16.42;;;14.85;;
54937;SDS011;52756;52.826;6.214;2022-07-21T04:15:26;18.65;;;16.95;;
54937;SDS011;52756;52.826;6.214;2022-07-21T04:17:52;20.42;;;18.40;;
54937;SDS011;52756;52.826;6.214;2022-07-21T04:20:18;21.77;;;19.77;;
54937;SDS011;52756;52.826;6.214;2022-07-21T04:22:45;27.85;;;25.17;;
54937;SDS011;52756;52.826;6.214;2022-07-21T04:25:12;30.55;;;27.55;;
54937;SDS011;52756;52.826;6.214;2022-07-21T04:27:39;25.13;;;22.83;;
54937;SDS011;52756;52.826;6.214;2022-07-21T04:30:05;29.80;;;26.98;;
54937;SDS011;52756;52.826;6.214;2022-07-21T04:32:33;24.95;;;22.75;;
54937;SDS011;52756;52.826;6.214;2022-07-21T04:34:59;27.00;;;24.50;;
54937;SDS011;52756;52.826;6.214;2022-07-21T04:37:25;25.08;;;22.50;;
54937;SDS011;52756;52.826;6.214;2022-07-21T04:39:51;19.48;;;17.50;;
54937;SDS011;52756;52.826;6.214;2022-07-21T04:42:16;19.65;;;17.75;;
54937;SDS011;52756;52.826;6.214;2022-07-21T04:44:42;23.65;;;21.13;;
54937;SDS011;52756;52.826;6.214;2022-07-21T04:47:08;21.65;;;19.50;;
54937;SDS011;52756;52.826;6.214;2022-07-21T04:49:33;25.95;;;23.42;;
54937;SDS011;52756;52.826;6.214;2022-07-21T04:51:59;24.02;;;21.77;;
54937;SDS011;52756;52.826;6.214;2022-07-21T04:54:25;24.58;;;22.08;;
54937;SDS011;52756;52.826;6.214;2022-07-21T04:56:50;20.35;;;18.55;;
54937;SDS011;52756;52.826;6.214;2022-07-21T04:59:16;20.33;;;18.30;;
54937;SDS011;52756;52.826;6.214;2022-07-21T05:01:42;25.10;;;22.63;;
54937;SDS011;52756;52.826;6.214;2022-07-21T05:04:08;26.17;;;23.60;;
54937;SDS011;52756;52.826;6.214;2022-07-21T05:06:33;25.92;;;23.40;;
54937;SDS011;52756;52.826;6.214;2022-07-21T05:08:59;22.85;;;20.55;;
54937;SDS011;52756;52.826;6.214;2022-07-21T05:11:25;26.17;;;23.50;;
54937;SDS011;52756;52.826;6.214;2022-07-21T05:13:51;24.48;;;22.17;;
54937;SDS011;52756;52.826;6.214;2022-07-21T05:16:17;23.23;;;20.75;;
54937;SDS011;52756;52.826;6.214;2022-07-21T05:18:43;24.38;;;22.17;;
54937;SDS011;52756;52.826;6.214;2022-07-21T05:21:09;25.58;;;23.08;;
54937;SDS011;52756;52.826;6.214;2022-07-21T05:23:34;24.80;;;22.55;;
54937;SDS011;52756;52.826;6.214;2022-07-21T05:26:00;22.42;;;20.23;;
54937;SDS011;52756;52.826;6.214;2022-07-21T05:28:29;19.35;;;17.52;;
54937;SDS011;52756;52.826;6.214;2022-07-21T05:30:55;17.90;;;16.25;;
54937;SDS011;52756;52.826;6.214;2022-07-21T05:33:21;17.25;;;15.65;;
54937;SDS011;52756;52.826;6.214;2022-07-21T05:35:46;17.38;;;15.77;;
54937;SDS011;52756;52.826;6.214;2022-07-21T05:38:12;17.27;;;15.68;;
54937;SDS011;52756;52.826;6.214;2022-07-21T05:40:38;16.70;;;15.10;;
54937;SDS011;52756;52.826;6.214;2022-07-21T05:43:04;16.27;;;14.73;;
54937;SDS011;52756;52.826;6.214;2022-07-21T05:45:30;15.50;;;14.07;;
54937;SDS011;52756;52.826;6.214;2022-07-21T05:47:56;13.68;;;12.25;;
54937;SDS011;52756;52.826;6.214;2022-07-21T05:50:22;16.50;;;14.90;;
54937;SDS011;52756;52.826;6.214;2022-07-21T05:52:47;15.88;;;14.35;;
54937;SDS011;52756;52.826;6.214;2022-07-21T05:55:13;16.30;;;14.70;;
54937;SDS011;52756;52.826;6.214;2022-07-21T05:57:39;16.73;;;15.02;;
54937;SDS011;52756;52.826;6.214;2022-07-21T06:00:05;14.18;;;12.60;;
54937;SDS011;52756;52.826;6.214;2022-07-21T06:02:32;15.85;;;13.48;;
54937;SDS011;52756;52.826;6.214;2022-07-21T06:04:58;14.88;;;13.45;;
54937;SDS011;52756;52.826;6.214;2022-07-21T06:07:24;15.27;;;13.88;;
54937;SDS011;52756;52.826;6.214;2022-07-21T06:09:50;16.55;;;14.85;;
54937;SDS011;52756;52.826;6.214;2022-07-21T06:12:16;16.73;;;15.02;;
54937;SDS011;52756;52.826;6.214;2022-07-21T06:14:42;16.02;;;14.52;;
54937;SDS011;52756;52.826;6.214;2022-07-21T06:17:07;14.70;;;13.40;;
54937;SDS011;52756;52.826;6.214;2022-07-21T06:19:33;16.90;;;15.27;;
54937;SDS011;52756;52.826;6.214;2022-07-21T06:21:59;18.13;;;16.35;;
54937;SDS011;52756;52.826;6.214;2022-07-21T06:24:25;20.63;;;18.73;;
54937;SDS011;52756;52.826;6.214;2022-07-21T06:26:52;20.63;;;18.55;;
54937;SDS011;52756;52.826;6.214;2022-07-21T06:29:21;21.45;;;19.35;;
54937;SDS011;52756;52.826;6.214;2022-07-21T06:31:47;21.98;;;19.88;;
54937;SDS011;52756;52.826;6.214;2022-07-21T06:34:13;21.15;;;19.25;;
54937;SDS011;52756;52.826;6.214;2022-07-21T06:36:38;20.75;;;18.92;;
54937;SDS011;52756;52.826;6.214;2022-07-21T06:39:04;26.00;;;21.23;;
54937;SDS011;52756;52.826;6.214;2022-07-21T06:41:30;24.27;;;21.00;;
54937;SDS011;52756;52.826;6.214;2022-07-21T06:43:55;19.52;;;17.70;;
54937;SDS011;52756;52.826;6.214;2022-07-21T06:46:21;24.08;;;21.75;;
54937;SDS011;52756;52.826;6.214;2022-07-21T06:48:47;25.38;;;22.92;;
54937;SDS011;52756;52.826;6.214;2022-07-21T06:51:13;24.65;;;22.23;;
54937;SDS011;52756;52.826;6.214;2022-07-21T06:53:39;24.25;;;22.05;;
54937;SDS011;52756;52.826;6.214;2022-07-21T06:56:07;24.23;;;21.95;;
54937;SDS011;52756;52.826;6.214;2022-07-21T06:58:33;18.83;;;17.13;;
54937;SDS011;52756;52.826;6.214;2022-07-21T07:00:59;23.98;;;21.77;;
54937;SDS011;52756;52.826;6.214;2022-07-21T07:03:25;26.02;;;23.48;;
54937;SDS011;52756;52.826;6.214;2022-07-21T07:05:50;24.02;;;21.55;;
54937;SDS011;52756;52.826;6.214;2022-07-21T07:08:17;25.73;;;23.27;;
54937;SDS011;52756;52.826;6.214;2022-07-21T07:10:44;28.40;;;25.63;;
54937;SDS011;52756;52.826;6.214;2022-07-21T07:13:11;29.63;;;25.85;;
54937;SDS011;52756;52.826;6.214;2022-07-21T07:15:38;29.73;;;26.88;;
54937;SDS011;52756;52.826;6.214;2022-07-21T07:18:04;30.40;;;27.25;;
54937;SDS011;52756;52.826;6.214;2022-07-21T07:20:31;34.08;;;30.75;;
54937;SDS011;52756;52.826;6.214;2022-07-21T07:22:56;33.38;;;30.00;;
54937;SDS011;52756;52.826;6.214;2022-07-21T07:25:22;34.13;;;30.63;;
54937;SDS011;52756;52.826;6.214;2022-07-21T07:27:49;34.40;;;30.88;;
54937;SDS011;52756;52.826;6.214;2022-07-21T07:30:16;31.45;;;28.33;;
54937;SDS011;52756;52.826;6.214;2022-07-21T07:32:42;33.40;;;30.02;;
54937;SDS011;52756;52.826;6.214;2022-07-21T07:35:09;33.15;;;29.67;;
54937;SDS011;52756;52.826;6.214;2022-07-21T07:37:36;30.75;;;27.60;;
54937;SDS011;52756;52.826;6.214;2022-07-21T07:40:04;34.50;;;30.88;;
54937;SDS011;52756;52.826;6.214;2022-07-21T07:42:32;31.25;;;28.00;;
54937;SDS011;52756;52.826;6.214;2022-07-21T07:44:58;29.77;;;26.73;;
54937;SDS011;52756;52.826;6.214;2022-07-21T07:47:24;32.53;;;29.13;;
54937;SDS011;52756;52.826;6.214;2022-07-21T07:49:50;34.63;;;30.83;;
54937;SDS011;52756;52.826;6.214;2022-07-21T07:52:18;33.72;;;30.25;;
54937;SDS011;52756;52.826;6.214;2022-07-21T07:54:46;34.90;;;31.30;;
54937;SDS011;52756;52.826;6.214;2022-07-21T07:57:12;28.27;;;25.38;;
54937;SDS011;52756;52.826;6.214;2022-07-21T07:59:37;36.38;;;32.40;;
54937;SDS011;52756;52.826;6.214;2022-07-21T08:02:03;31.95;;;28.75;;
54937;SDS011;52756;52.826;6.214;2022-07-21T08:04:29;33.25;;;29.75;;
54937;SDS011;52756;52.826;6.214;2022-07-21T08:06:54;33.20;;;29.20;;
54937;SDS011;52756;52.826;6.214;2022-07-21T08:09:20;29.30;;;26.13;;
54937;SDS011;52756;52.826;6.214;2022-07-21T08:11:46;38.47;;;34.33;;
54937;SDS011;52756;52.826;6.214;2022-07-21T08:14:16;35.67;;;31.85;;
54937;SDS011;52756;52.826;6.214;2022-07-21T08:16:41;38.22;;;31.85;;
54937;SDS011;52756;52.826;6.214;2022-07-21T08:19:07;36.65;;;31.98;;
54937;SDS011;52756;52.826;6.214;2022-07-21T08:21:33;38.50;;;34.60;;
54937;SDS011;52756;52.826;6.214;2022-07-21T08:24:00;33.92;;;30.33;;
54937;SDS011;52756;52.826;6.214;2022-07-21T08:26:26;37.20;;;33.45;;
54937;SDS011;52756;52.826;6.214;2022-07-21T08:28:52;40.00;;;36.00;;
54937;SDS011;52756;52.826;6.214;2022-07-21T08:31:19;34.78;;;31.35;;
54937;SDS011;52756;52.826;6.214;2022-07-21T08:33:45;40.00;;;35.80;;
54937;SDS011;52756;52.826;6.214;2022-07-21T08:36:11;38.72;;;34.75;;
54937;SDS011;52756;52.826;6.214;2022-07-21T08:38:36;37.50;;;33.67;;
54937;SDS011;52756;52.826;6.214;2022-07-21T08:41:02;34.50;;;30.95;;
54937;SDS011;52756;52.826;6.214;2022-07-21T08:43:28;34.42;;;31.02;;
54937;SDS011;52756;52.826;6.214;2022-07-21T08:45:54;36.60;;;33.08;;
54937;SDS011;52756;52.826;6.214;2022-07-21T08:48:23;32.42;;;29.15;;
54937;SDS011;52756;52.826;6.214;2022-07-21T08:50:50;36.45;;;32.90;;
54937;SDS011;52756;52.826;6.214;2022-07-21T08:53:15;32.92;;;29.63;;
54937;SDS011;52756;52.826;6.214;2022-07-21T08:55:41;30.55;;;27.52;;
54937;SDS011;52756;52.826;6.214;2022-07-21T08:58:08;29.30;;;26.35;;
54937;SDS011;52756;52.826;6.214;2022-07-21T09:00:34;36.67;;;32.58;;
54937;SDS011;52756;52.826;6.214;2022-07-21T09:03:07;32.42;;;29.30;;
54937;SDS011;52756;52.826;6.214;2022-07-21T09:06:04;34.63;;;31.20;;
54937;SDS011;52756;52.826;6.214;2022-07-21T09:08:36;27.17;;;24.60;;
54937;SDS011;52756;52.826;6.214;2022-07-21T09:13:44;28.73;;;25.95;;
54937;SDS011;52756;52.826;6.214;2022-07-21T09:16:11;32.08;;;28.77;;
54937;SDS011;52756;52.826;6.214;2022-07-21T09:18:47;33.55;;;30.17;;
54937;SDS011;52756;52.826;6.214;2022-07-21T09:21:15;33.75;;;30.15;;
54937;SDS011;52756;52.826;6.214;2022-07-21T09:23:41;31.98;;;28.70;;
54937;SDS011;52756;52.826;6.214;2022-07-21T09:26:07;28.08;;;25.27;;
54937;SDS011;52756;52.826;6.214;2022-07-21T09:28:33;32.78;;;29.45;;
54937;SDS011;52756;52.826;6.214;2022-07-21T09:36:00;30.35;;;27.50;;
54937;SDS011;52756;52.826;6.214;2022-07-21T09:38:28;29.73;;;26.73;;
54937;SDS011;52756;52.826;6.214;2022-07-21T09:40:55;33.58;;;30.05;;
54937;SDS011;52756;52.826;6.214;2022-07-21T09:46:08;30.48;;;27.27;;
54937;SDS011;52756;52.826;6.214;2022-07-21T09:48:36;25.20;;;22.67;;
54937;SDS011;52756;52.826;6.214;2022-07-21T09:51:20;28.42;;;25.33;;
54937;SDS011;52756;52.826;6.214;2022-07-21T09:53:52;27.55;;;24.85;;
54937;SDS011;52756;52.826;6.214;2022-07-21T09:56:21;26.25;;;23.58;;
54937;SDS011;52756;52.826;6.214;2022-07-21T09:58:48;28.77;;;25.92;;
54937;SDS011;52756;52.826;6.214;2022-07-21T10:01:15;27.60;;;24.27;;
54937;SDS011;52756;52.826;6.214;2022-07-21T10:03:45;27.38;;;24.42;;
54937;SDS011;52756;52.826;6.214;2022-07-21T10:06:12;27.25;;;24.42;;
54937;SDS011;52756;52.826;6.214;2022-07-21T10:08:40;25.15;;;22.67;;
54937;SDS011;52756;52.826;6.214;2022-07-21T10:11:07;24.60;;;22.10;;
54937;SDS011;52756;52.826;6.214;2022-07-21T10:13:33;25.90;;;23.23;;
54937;SDS011;52756;52.826;6.214;2022-07-21T10:15:59;28.98;;;26.02;;
54937;SDS011;52756;52.826;6.214;2022-07-21T10:18:26;32.42;;;29.23;;
54937;SDS011;52756;52.826;6.214;2022-07-21T10:20:55;34.60;;;31.30;;
54937;SDS011;52756;52.826;6.214;2022-07-21T10:23:40;26.52;;;23.80;;
54937;SDS011;52756;52.826;6.214;2022-07-21T10:26:07;25.75;;;23.20;;
54937;SDS011;52756;52.826;6.214;2022-07-21T10:28:35;30.17;;;27.23;;
54937;SDS011;52756;52.826;6.214;2022-07-21T10:31:14;24.90;;;22.40;;
54937;SDS011;52756;52.826;6.214;2022-07-21T10:36:12;30.23;;;27.23;;
54937;SDS011;52756;52.826;6.214;2022-07-21T10:41:42;25.98;;;23.27;;
54937;SDS011;52756;52.826;6.214;2022-07-21T10:47:11;27.25;;;24.65;;
54937;SDS011;52756;52.826;6.214;2022-07-21T10:57:41;28.92;;;25.98;;
54937;SDS011;52756;52.826;6.214;2022-07-21T11:02:46;31.42;;;28.35;;
54937;SDS011;52756;52.826;6.214;2022-07-21T11:05:15;25.00;;;22.63;;
54937;SDS011;52756;52.826;6.214;2022-07-21T11:10:46;27.50;;;24.73;;
54937;SDS011;52756;52.826;6.214;2022-07-21T11:13:16;25.75;;;23.25;;
54937;SDS011;52756;52.826;6.214;2022-07-21T11:18:23;30.83;;;27.73;;
54937;SDS011;52756;52.826;6.214;2022-07-21T11:21:07;27.75;;;25.15;;
54937;SDS011;52756;52.826;6.214;2022-07-21T11:26:14;27.60;;;25.00;;
54937;SDS011;52756;52.826;6.214;2022-07-21T11:28:42;24.42;;;22.00;;
54937;SDS011;52756;52.826;6.214;2022-07-21T11:31:16;24.88;;;22.58;;
54937;SDS011;52756;52.826;6.214;2022-07-21T11:33:46;13.80;;;12.43;;
54937;SDS011;52756;52.826;6.214;2022-07-21T11:36:27;14.60;;;13.13;;
54937;SDS011;52756;52.826;6.214;2022-07-21T11:38:59;12.45;;;10.90;;
54937;SDS011;52756;52.826;6.214;2022-07-21T11:41:28;11.52;;;10.40;;
54937;SDS011;52756;52.826;6.214;2022-07-21T11:43:53;10.60;;;8.98;;
54937;SDS011;52756;52.826;6.214;2022-07-21T11:46:19;11.25;;;9.35;;
54937;SDS011;52756;52.826;6.214;2022-07-21T11:48:45;8.73;;;7.88;;
54937;SDS011;52756;52.826;6.214;2022-07-21T11:51:11;10.70;;;9.68;;
54937;SDS011;52756;52.826;6.214;2022-07-21T11:53:42;10.25;;;9.25;;
54937;SDS011;52756;52.826;6.214;2022-07-21T11:56:13;11.45;;;8.90;;
54937;SDS011;52756;52.826;6.214;2022-07-21T11:58:40;10.15;;;9.15;;
54937;SDS011;52756;52.826;6.214;2022-07-21T12:01:07;9.98;;;8.65;;
54937;SDS011;52756;52.826;6.214;2022-07-21T12:03:33;10.57;;;9.60;;
54937;SDS011;52756;52.826;6.214;2022-07-21T12:06:00;7.95;;;7.18;;
54937;SDS011;52756;52.826;6.214;2022-07-21T12:08:27;7.82;;;6.95;;
54937;SDS011;52756;52.826;6.214;2022-07-21T12:11:04;10.40;;;7.50;;
54937;SDS011;52756;52.826;6.214;2022-07-21T12:13:50;9.57;;;8.18;;
54937;SDS011;52756;52.826;6.214;2022-07-21T12:16:17;8.35;;;7.55;;
54937;SDS011;52756;52.826;6.214;2022-07-21T12:18:43;10.00;;;9.10;;
54937;SDS011;52756;52.826;6.214;2022-07-21T12:21:09;9.95;;;8.95;;
54937;SDS011;52756;52.826;6.214;2022-07-21T12:23:34;9.13;;;8.23;;
54937;SDS011;52756;52.826;6.214;2022-07-21T12:26:02;11.13;;;10.02;;
54937;SDS011;52756;52.826;6.214;2022-07-21T12:28:44;9.10;;;8.27;;
54937;SDS011;52756;52.826;6.214;2022-07-21T12:31:18;9.38;;;8.48;;
54937;SDS011;52756;52.826;6.214;2022-07-21T12:33:52;7.63;;;6.93;;
54937;SDS011;52756;52.826;6.214;2022-07-21T12:36:21;7.70;;;7.00;;
54937;SDS011;52756;52.826;6.214;2022-07-21T12:38:47;7.72;;;7.03;;
54937;SDS011;52756;52.826;6.214;2022-07-21T12:41:19;7.53;;;6.72;;
54937;SDS011;52756;52.826;6.214;2022-07-21T12:43:57;8.57;;;7.68;;
54937;SDS011;52756;52.826;6.214;2022-07-21T12:46:30;9.65;;;8.40;;
54937;SDS011;52756;52.826;6.214;2022-07-21T12:49:08;8.35;;;7.65;;
54937;SDS011;52756;52.826;6.214;2022-07-21T12:51:35;8.10;;;7.40;;
54937;SDS011;52756;52.826;6.214;2022-07-21T12:54:01;8.35;;;7.53;;
54937;SDS011;52756;52.826;6.214;2022-07-21T12:56:28;8.32;;;7.53;;
54937;SDS011;52756;52.826;6.214;2022-07-21T12:58:57;8.23;;;7.43;;
54937;SDS011;52756;52.826;6.214;2022-07-21T13:01:25;8.25;;;7.38;;
54937;SDS011;52756;52.826;6.214;2022-07-21T13:03:52;11.43;;;10.43;;
54937;SDS011;52756;52.826;6.214;2022-07-21T13:06:19;7.13;;;6.47;;
54937;SDS011;52756;52.826;6.214;2022-07-21T13:08:45;9.68;;;8.77;;
54937;SDS011;52756;52.826;6.214;2022-07-21T13:11:14;8.88;;;8.07;;
54937;SDS011;52756;52.826;6.214;2022-07-21T13:13:43;8.50;;;7.50;;
54937;SDS011;52756;52.826;6.214;2022-07-21T13:16:11;9.07;;;8.27;;
54937;SDS011;52756;52.826;6.214;2022-07-21T13:18:36;8.18;;;7.47;;
54937;SDS011;52756;52.826;6.214;2022-07-21T13:21:03;8.98;;;8.07;;
54937;SDS011;52756;52.826;6.214;2022-07-21T13:23:29;7.70;;;6.88;;
54937;SDS011;52756;52.826;6.214;2022-07-21T13:25:55;8.32;;;7.40;;
54937;SDS011;52756;52.826;6.214;2022-07-21T13:28:20;7.25;;;6.55;;
54937;SDS011;52756;52.826;6.214;2022-07-21T13:30:46;9.60;;;8.70;;
54937;SDS011;52756;52.826;6.214;2022-07-21T13:33:12;7.75;;;6.63;;
54937;SDS011;52756;52.826;6.214;2022-07-21T13:35:39;8.32;;;7.53;;
54937;SDS011;52756;52.826;6.214;2022-07-21T13:38:05;7.90;;;7.15;;
54937;SDS011;52756;52.826;6.214;2022-07-21T13:40:31;9.45;;;8.55;;
54937;SDS011;52756;52.826;6.214;2022-07-21T13:42:57;8.85;;;7.95;;
54937;SDS011;52756;52.826;6.214;2022-07-21T13:45:22;8.73;;;7.93;;
54937;SDS011;52756;52.826;6.214;2022-07-21T13:47:49;7.80;;;7.10;;
54937;SDS011;52756;52.826;6.214;2022-07-21T13:50:15;7.80;;;7.05;;
54937;SDS011;52756;52.826;6.214;2022-07-21T13:52:41;7.78;;;6.72;;
54937;SDS011;52756;52.826;6.214;2022-07-21T13:55:07;7.30;;;6.60;;
54937;SDS011;52756;52.826;6.214;2022-07-21T13:57:34;8.25;;;7.15;;
54937;SDS011;52756;52.826;6.214;2022-07-21T14:00:00;7.72;;;6.70;;
54937;SDS011;52756;52.826;6.214;2022-07-21T14:02:36;6.10;;;5.50;;
54937;SDS011;52756;52.826;6.214;2022-07-21T14:05:02;7.50;;;6.13;;
54937;SDS011;52756;52.826;6.214;2022-07-21T14:07:29;6.45;;;5.22;;
54937;SDS011;52756;52.826;6.214;2022-07-21T14:09:55;6.05;;;5.20;;
54937;SDS011;52756;52.826;6.214;2022-07-21T14:12:21;6.53;;;5.03;;
54937;SDS011;52756;52.826;6.214;2022-07-21T14:14:46;6.15;;;5.22;;
54937;SDS011;52756;52.826;6.214;2022-07-21T14:17:12;7.07;;;5.35;;
54937;SDS011;52756;52.826;6.214;2022-07-21T14:19:42;6.55;;;5.85;;
54937;SDS011;52756;52.826;6.214;2022-07-21T14:22:09;7.45;;;6.30;;
54937;SDS011;52756;52.826;6.214;2022-07-21T14:24:36;8.80;;;7.85;;
54937;SDS011;52756;52.826;6.214;2022-07-21T14:27:20;7.75;;;6.82;;
54937;SDS011;52756;52.826;6.214;2022-07-21T14:29:45;9.90;;;7.38;;
54937;SDS011;52756;52.826;6.214;2022-07-21T14:32:11;7.25;;;6.55;;
54937;SDS011;52756;52.826;6.214;2022-07-21T14:34:37;8.52;;;7.70;;
54937;SDS011;52756;52.826;6.214;2022-07-21T14:37:03;8.20;;;7.35;;
54937;SDS011;52756;52.826;6.214;2022-07-21T14:39:28;12.20;;;9.50;;
54937;SDS011;52756;52.826;6.214;2022-07-21T14:41:54;9.48;;;8.48;;
54937;SDS011;52756;52.826;6.214;2022-07-21T14:44:20;9.18;;;8.32;;
54937;SDS011;52756;52.826;6.214;2022-07-21T14:46:45;10.68;;;9.57;;
54937;SDS011;52756;52.826;6.214;2022-07-21T14:49:11;11.85;;;10.60;;
54937;SDS011;52756;52.826;6.214;2022-07-21T14:51:37;11.38;;;8.60;;
54937;SDS011;52756;52.826;6.214;2022-07-21T14:54:02;11.63;;;10.52;;
54937;SDS011;52756;52.826;6.214;2022-07-21T14:56:28;8.38;;;7.57;;
54937;SDS011;52756;52.826;6.214;2022-07-21T14:58:54;9.68;;;8.68;;
54937;SDS011;52756;52.826;6.214;2022-07-21T15:01:19;8.35;;;7.43;;
54937;SDS011;52756;52.826;6.214;2022-07-21T15:03:45;8.20;;;7.13;;
54937;SDS011;52756;52.826;6.214;2022-07-21T15:06:11;8.15;;;6.80;;
54937;SDS011;52756;52.826;6.214;2022-07-21T15:08:36;7.93;;;6.20;;